Flugplatz Backnang-Heiningen

Für EDSH sind keine METAR/TAF Berichte vorhanden.
Es werden die Flugwettermeldungen vom Flugplatz Stuttgart in 30 km Entfernung angezeigt.

Bericht für EDDS

vom 11.05. um 19:20 UTC

Wind 3 kt aus 230°

Sichtweite 10 km oder mehr

schwacher Regen

gering bewölkt in 700 ft

Temperatur 11.0°C

Taupunkt 10.0°C

Luftfeuchtigkeit 94%

Luftdruck 1011 hPa

keine wesentliche Wetteränderung innerhalb den nächsten 2 Stunden zu erwarten

EDDS 111920Z 23003KT 180V290 9999 -RA FEW007 11/10 Q1011 RERA NOSIG

Prognose für EDDS

vom 11.05. um 17:00 UTC

Zwischen 18:00 UTC und 18:00 UTC

Wind 5 kt aus 260°

Sichtweite 10 km oder mehr

aufgelockert bewölkt in 800 ft

aufgebrochene Bewölkung in 2500 ft


Zwischen 18:00 UTC und 22:00 UTC zeitweise

Regen

aufgebrochene Bewölkung in 800 ft


Zwischen 22:00 UTC und 07:00 UTC zeitweise

aufgebrochene Bewölkung in 800 ft


Am 12.05. zwischen 12:00 UTC und 18:00 UTC zeitweise mit einer Wahrscheinlichkeit von 30%

Regenschauer

aufgebrochene Bewölkung in 2500 ft

TAF EDDS 111700Z 1118/1218 26005KT 9999 SCT008 BKN025 TEMPO 1118/1122 RA BKN008 TEMPO 1122/1207 BKN008 PROB30 TEMPO 1212/1218 SHRA BKN025CB
Impressum